PWSweather.com
Personal Weather Stations
Station Observations
ON7DKEWX
Knokke Heist, Knokke HeistBE 8300

Knokke HeistKnokke HeistBE 8300

Lat: 51.32199, Lon: 3.28778

Elevation: 5

Station Type: Davis Vantage Pro 2

www.weerstationheist.be

High Low Average
Temperature 63.5°F17.5°C 56.3°F13.5°C 60.2°F15.7°C
Dew Point 58.6°F14.8°C 50.9°F10.5°C 55.5°F13.1°C
Winds 8.1 mph 13.0 kmh 1.2 mph 1.9 kmh 5.0 mph SW8.0 kmh SW
Wind Gusts 18.4 mph29.6 kmh 1.2 mph1.9 kmh 9.0 mph14.5 kmh
Humidity 93% 78% 85%
Pressure 30.04 in1017.3 mb 29.88 in1011.9 mb -
Precipitation 0.00 in0.0 mm - -
Hour Temp Dew Point Humidity Winds Wind Gusts Pressure Precip Precip Rate Daily Precip Total
12:00 AM 61.2°F16.2°C 58.6°F14.8°C 91% 3.5 mph N5.6 kmh N 4.6 mph7.4 kmh 29.89 in1012.2 mb - 0.00 in0.0 mm 0.00 in0.0 mm
01:00 AM 60.7°F15.9°C 58.4°F14.7°C 92% 3.5 mph N5.6 kmh N 8.1 mph13.0 kmh 29.89 in1012.2 mb - 0.00 in0.0 mm 0.00 in0.0 mm
02:00 AM 60.0°F15.6°C 57.7°F14.3°C 92% 4.6 mph NNE7.4 kmh NNE 6.9 mph11.1 kmh 29.89 in1012.2 mb - 0.00 in0.0 mm 0.00 in0.0 mm
03:00 AM 59.4°F15.2°C 57.1°F13.9°C 92% 3.5 mph N5.6 kmh N 5.8 mph9.3 kmh 29.88 in1011.9 mb - 0.00 in0.0 mm 0.00 in0.0 mm
04:00 AM 59.4°F15.2°C 57.4°F14.1°C 93% 1.2 mph NE1.9 kmh NE 1.2 mph1.9 kmh 29.89 in1012.2 mb - 0.00 in0.0 mm 0.00 in0.0 mm
05:00 AM 59.5°F15.3°C 56.9°F13.8°C 91% 6.9 mph N11.1 kmh N 8.1 mph13.0 kmh 29.89 in1012.2 mb - 0.00 in0.0 mm 0.00 in0.0 mm
06:00 AM 59.6°F15.3°C 56.7°F13.7°C 90% 5.8 mph NNE9.3 kmh NNE 5.8 mph9.3 kmh 29.90 in1012.5 mb - 0.00 in0.0 mm 0.00 in0.0 mm
07:00 AM 60.3°F15.7°C 56.7°F13.7°C 88% 6.9 mph NNE11.1 kmh NNE 10.4 mph16.7 kmh 29.91 in1012.9 mb - 0.00 in0.0 mm 0.00 in0.0 mm
08:00 AM 60.9°F16.1°C 56.4°F13.6°C 85% 6.9 mph NNE11.1 kmh NNE 15.0 mph24.1 kmh 29.93 in1013.5 mb - 0.00 in0.0 mm 0.00 in0.0 mm
09:00 AM 61.4°F16.3°C 56.5°F13.6°C 84% 5.8 mph NNE9.3 kmh NNE 9.2 mph14.8 kmh 29.93 in1013.5 mb - 0.00 in0.0 mm 0.00 in0.0 mm
10:00 AM 62.2°F16.8°C 56.3°F13.5°C 81% 3.5 mph NNW5.6 kmh NNW 5.8 mph9.3 kmh 29.94 in1013.9 mb - 0.00 in0.0 mm 0.00 in0.0 mm
11:00 AM 63.5°F17.5°C 56.9°F13.8°C 79% 6.9 mph NW11.1 kmh NW 12.7 mph20.4 kmh 29.95 in1014.2 mb - 0.00 in0.0 mm 0.00 in0.0 mm
12:00 PM 62.9°F17.2°C 56.6°F13.7°C 80% 4.6 mph NNE7.4 kmh NNE 9.2 mph14.8 kmh 29.96 in1014.6 mb - 0.00 in0.0 mm 0.00 in0.0 mm
01:00 PM 63.0°F17.2°C 56.1°F13.4°C 78% 8.1 mph NW13.0 kmh NW 18.4 mph29.6 kmh 29.97 in1014.9 mb - 0.00 in0.0 mm 0.00 in0.0 mm
02:00 PM 62.1°F16.7°C 56.6°F13.7°C 82% 4.6 mph NNW7.4 kmh NNW 9.2 mph14.8 kmh 29.98 in1015.2 mb - 0.00 in0.0 mm 0.00 in0.0 mm
03:00 PM 61.4°F16.3°C 56.2°F13.4°C 83% 5.8 mph NNW9.3 kmh NNW 8.1 mph13.0 kmh 29.99 in1015.6 mb - 0.00 in0.0 mm 0.00 in0.0 mm
04:00 PM 60.6°F15.9°C 55.4°F13.0°C 83% 8.1 mph NW13.0 kmh NW 18.4 mph29.6 kmh 30.00 in1015.9 mb - 0.00 in0.0 mm 0.00 in0.0 mm
05:00 PM 60.4°F15.8°C 54.9°F12.7°C 82% 5.8 mph NW9.3 kmh NW 15.0 mph24.1 kmh 29.99 in1015.6 mb - 0.00 in0.0 mm 0.00 in0.0 mm
06:00 PM 59.9°F15.5°C 53.0°F11.7°C 78% 5.8 mph NNW9.3 kmh NNW 11.5 mph18.5 kmh 30.00 in1015.9 mb - 0.00 in0.0 mm 0.00 in0.0 mm
07:00 PM 58.7°F14.8°C 52.5°F11.4°C 80% 6.9 mph NNW11.1 kmh NNW 12.7 mph20.4 kmh 30.00 in1015.9 mb - 0.00 in0.0 mm 0.00 in0.0 mm
08:00 PM 57.6°F14.2°C 52.2°F11.2°C 82% 3.5 mph NNW5.6 kmh NNW 4.6 mph7.4 kmh 30.01 in1016.3 mb - 0.00 in0.0 mm 0.00 in0.0 mm
09:00 PM 56.9°F13.8°C 51.8°F11.0°C 83% 4.6 mph NW7.4 kmh NW 8.1 mph13.0 kmh 30.02 in1016.6 mb - 0.00 in0.0 mm 0.00 in0.0 mm
10:00 PM 56.3°F13.5°C 50.9°F10.5°C 82% 3.5 mph NNW5.6 kmh NNW 11.5 mph18.5 kmh 30.04 in1017.3 mb - 0.00 in0.0 mm 0.00 in0.0 mm
11:00 PM 56.4°F13.6°C 51.3°F10.7°C 83% 2.3 mph NW3.7 kmh NW 3.5 mph5.6 kmh 30.04 in1017.3 mb - 0.00 in0.0 mm 0.00 in0.0 mm